createdAt,value
2023-03-26T00:02:52.382Z,13.72
2023-03-26T00:07:54.690Z,13.65
2023-03-26T00:12:57.360Z,13.60
2023-03-26T00:18:03.398Z,13.51
2023-03-26T00:23:11.058Z,13.45
2023-03-26T00:28:18.184Z,13.43
2023-03-26T00:33:22.852Z,13.18
2023-03-26T00:38:27.992Z,13.21
2023-03-26T00:43:34.017Z,13.08
2023-03-26T00:48:45.422Z,13.12
2023-03-26T00:53:51.755Z,13.08
2023-03-26T00:58:59.335Z,12.96
2023-03-26T01:04:32.198Z,12.91
2023-03-26T01:09:43.677Z,12.72
2023-03-26T01:14:47.341Z,12.78
2023-03-26T01:20:14.141Z,12.69
2023-03-26T01:25:20.535Z,12.52
2023-03-26T01:30:34.225Z,12.62
2023-03-26T01:35:56.948Z,12.63
2023-03-26T01:41:09.915Z,12.55
2023-03-26T01:46:13.483Z,12.42
2023-03-26T01:51:30.220Z,12.27
2023-03-26T01:56:39.186Z,12.37
2023-03-26T02:02:04.943Z,12.27
2023-03-26T02:07:23.828Z,12.07
2023-03-26T02:12:26.616Z,11.94
2023-03-26T02:17:30.274Z,11.96
2023-03-26T02:22:32.420Z,11.88
2023-03-26T02:27:34.591Z,11.85
2023-03-26T02:32:41.626Z,11.64
2023-03-26T02:37:47.078Z,11.58
2023-03-26T02:42:52.237Z,11.57
2023-03-26T02:47:57.974Z,11.61
2023-03-26T02:53:19.219Z,11.57
2023-03-26T02:58:27.344Z,11.56
2023-03-26T03:03:30.228Z,11.48
2023-03-26T03:08:32.272Z,11.56
2023-03-26T03:13:48.041Z,11.51
2023-03-26T03:18:58.117Z,11.41
2023-03-26T03:24:19.940Z,11.41
2023-03-26T03:29:25.199Z,11.28
2023-03-26T03:34:27.944Z,11.34
2023-03-26T03:39:30.242Z,11.36
2023-03-26T03:44:32.410Z,11.28
2023-03-26T03:49:38.269Z,11.22
2023-03-26T03:54:46.764Z,11.17
2023-03-26T04:00:10.228Z,11.14
2023-03-26T04:05:18.212Z,11.08
2023-03-26T04:10:23.964Z,11.06
2023-03-26T04:15:46.357Z,11.03
2023-03-26T04:20:50.146Z,11.10
2023-03-26T04:26:04.335Z,11.02
2023-03-26T04:31:30.766Z,11.02
2023-03-26T04:36:35.687Z,10.95
2023-03-26T04:41:38.763Z,10.96
2023-03-26T04:46:50.051Z,10.87
2023-03-26T04:51:59.238Z,10.92
2023-03-26T04:57:23.969Z,10.86
2023-03-26T05:02:32.840Z,10.77
2023-03-26T05:07:35.858Z,10.64
2023-03-26T05:12:38.395Z,10.48
2023-03-26T05:17:46.710Z,10.52
2023-03-26T05:22:57.352Z,10.40
2023-03-26T05:28:03.402Z,10.52
2023-03-26T05:33:16.552Z,10.46
2023-03-26T05:38:25.740Z,10.42
2023-03-26T05:43:28.701Z,10.41
2023-03-26T05:48:41.483Z,10.31
2023-03-26T05:53:43.985Z,10.30
2023-03-26T05:59:04.321Z,10.31
2023-03-26T06:04:28.769Z,10.34
2023-03-26T06:09:58.741Z,10.28
2023-03-26T06:15:00.891Z,10.19
2023-03-26T06:20:17.615Z,10.32
2023-03-26T06:25:21.958Z,10.26
2023-03-26T06:30:46.803Z,10.17
2023-03-26T06:36:09.428Z,10.18
2023-03-26T06:41:12.135Z,10.22
2023-03-26T06:46:38.759Z,10.28
2023-03-26T06:51:59.723Z,10.23
2023-03-26T06:57:15.966Z,10.34
2023-03-26T07:02:18.104Z,10.41
2023-03-26T07:07:46.207Z,10.50
2023-03-26T07:13:07.958Z,10.58
2023-03-26T07:18:38.780Z,10.63
2023-03-26T07:23:43.947Z,10.73
2023-03-26T07:29:46.202Z,10.82
2023-03-26T07:35:42.293Z,10.88
2023-03-26T07:42:02.660Z,11.07
2023-03-26T07:47:34.654Z,11.28
2023-03-26T07:52:57.299Z,11.48
2023-03-26T07:59:07.782Z,11.72
2023-03-26T08:04:48.688Z,11.99
2023-03-26T08:10:22.576Z,12.36
2023-03-26T08:16:20.076Z,12.72
2023-03-26T08:21:45.780Z,12.96
2023-03-26T08:27:02.782Z,13.13
2023-03-26T08:32:05.860Z,13.33
2023-03-26T08:37:10.057Z,13.57
2023-03-26T08:42:27.005Z,14.14
2023-03-26T08:47:29.173Z,14.93
2023-03-26T08:52:42.531Z,15.54
2023-03-26T08:57:59.370Z,16.10
2023-03-26T09:03:19.897Z,16.63
2023-03-26T09:08:54.158Z,17.61
2023-03-26T09:14:16.888Z,18.65
2023-03-26T09:20:16.224Z,19.50
2023-03-26T09:25:35.333Z,20.33
2023-03-26T09:30:43.106Z,20.63
2023-03-26T09:35:54.128Z,20.67
2023-03-26T09:41:06.453Z,21.16
2023-03-26T09:46:34.509Z,21.96
2023-03-26T09:51:36.489Z,22.21
2023-03-26T09:57:08.387Z,22.15
2023-03-26T10:02:46.107Z,22.12
2023-03-26T10:07:57.496Z,22.06
2023-03-26T10:13:14.477Z,22.49
2023-03-26T10:18:42.413Z,22.73
2023-03-26T10:24:23.500Z,23.07
2023-03-26T10:29:48.853Z,23.11
2023-03-26T10:35:13.584Z,23.43
2023-03-26T10:40:56.971Z,23.60
2023-03-26T10:45:59.027Z,23.66
2023-03-26T10:51:20.882Z,24.04
2023-03-26T10:56:52.454Z,24.08
2023-03-26T11:01:54.393Z,24.19
2023-03-26T11:07:20.971Z,24.36
2023-03-26T11:12:46.724Z,24.40
2023-03-26T11:17:59.401Z,24.79
2023-03-26T11:23:13.381Z,24.68
2023-03-26T11:28:41.491Z,24.54
2023-03-26T11:34:09.808Z,24.48
2023-03-26T11:39:15.838Z,23.75
2023-03-26T11:44:21.983Z,23.40
2023-03-26T11:49:24.222Z,22.99
2023-03-26T11:54:26.763Z,22.58
2023-03-26T11:59:30.316Z,22.58
2023-03-26T12:04:38.393Z,22.34
2023-03-26T12:09:54.002Z,21.99
2023-03-26T12:14:57.394Z,21.84
2023-03-26T12:20:01.524Z,21.61
2023-03-26T12:25:16.544Z,21.52
2023-03-26T12:30:31.538Z,21.55
2023-03-26T12:35:35.699Z,21.43
2023-03-26T12:40:39.940Z,21.28
2023-03-26T12:45:43.645Z,21.15
2023-03-26T12:50:51.348Z,21.08
2023-03-26T12:56:36.895Z,20.87
2023-03-26T13:01:58.523Z,20.99
2023-03-26T13:07:16.552Z,20.92
2023-03-26T13:12:25.909Z,20.90
2023-03-26T13:18:00.245Z,20.74
2023-03-26T13:23:40.968Z,20.61
2023-03-26T13:28:57.584Z,20.64
2023-03-26T13:34:41.424Z,20.75
2023-03-26T13:39:57.251Z,20.47
2023-03-26T13:45:38.611Z,20.61
2023-03-26T13:50:43.441Z,20.59
2023-03-26T13:55:49.331Z,20.65
2023-03-26T14:01:12.646Z,20.58
2023-03-26T14:06:20.950Z,20.52
2023-03-26T14:11:50.163Z,20.48
2023-03-26T14:16:58.954Z,20.46
2023-03-26T14:22:24.402Z,20.56
2023-03-26T14:27:49.916Z,20.66
2023-03-26T14:33:11.366Z,20.64
2023-03-26T14:38:23.253Z,20.48
2023-03-26T14:43:50.058Z,20.62
2023-03-26T14:49:33.536Z,20.55
2023-03-26T14:54:40.963Z,20.58
2023-03-26T15:00:12.455Z,20.56
2023-03-26T15:05:48.498Z,20.63
2023-03-26T15:11:25.866Z,20.36
2023-03-26T15:17:01.534Z,20.37
2023-03-26T15:22:34.601Z,20.21
2023-03-26T15:27:57.543Z,20.21
2023-03-26T15:33:40.833Z,20.18
2023-03-26T15:39:03.400Z,19.97
2023-03-26T15:44:22.943Z,20.08
2023-03-26T15:49:40.827Z,19.98
2023-03-26T15:55:01.959Z,19.95
2023-03-26T16:00:22.637Z,19.88
2023-03-26T16:05:48.775Z,19.91
2023-03-26T16:10:51.792Z,19.85
2023-03-26T16:16:02.912Z,19.79
2023-03-26T16:21:30.860Z,19.79
2023-03-26T16:26:43.131Z,19.76
2023-03-26T16:32:14.221Z,19.76
2023-03-26T16:38:04.898Z,19.69
2023-03-26T16:43:31.172Z,19.45
2023-03-26T16:48:41.675Z,19.24
2023-03-26T16:54:19.080Z,19.15
2023-03-26T16:59:46.493Z,18.99
2023-03-26T17:05:44.189Z,18.89
2023-03-26T17:10:57.269Z,18.84
2023-03-26T17:16:23.951Z,18.70
2023-03-26T17:21:46.683Z,18.62
2023-03-26T17:26:55.208Z,18.52
2023-03-26T17:32:11.534Z,18.40
2023-03-26T17:37:27.634Z,18.25
2023-03-26T17:42:35.513Z,18.16
2023-03-26T17:47:56.532Z,17.98
2023-03-26T17:53:34.661Z,17.99
2023-03-26T17:58:50.658Z,17.74
2023-03-26T18:03:59.377Z,17.61
2023-03-26T18:09:22.032Z,17.54
2023-03-26T18:14:40.685Z,17.41
2023-03-26T18:20:07.389Z,17.23
2023-03-26T18:25:32.383Z,17.12
2023-03-26T18:30:49.098Z,16.96
2023-03-26T18:35:56.486Z,16.93
2023-03-26T18:40:59.118Z,16.90
2023-03-26T18:46:01.577Z,16.72
2023-03-26T18:51:06.180Z,16.68
2023-03-26T18:56:34.027Z,16.45
2023-03-26T19:01:38.494Z,16.22
2023-03-26T19:06:40.735Z,16.24
2023-03-26T19:11:44.359Z,16.07
2023-03-26T19:16:51.044Z,16.02
2023-03-26T19:21:53.258Z,15.88
2023-03-26T19:26:55.873Z,15.78
2023-03-26T19:32:18.154Z,15.73
2023-03-26T19:37:23.224Z,15.66
2023-03-26T19:42:43.081Z,15.64
2023-03-26T19:47:52.227Z,15.46
2023-03-26T19:53:32.727Z,15.47
2023-03-26T19:58:35.785Z,15.42
2023-03-26T20:03:43.022Z,15.36
2023-03-26T20:08:45.312Z,15.29
2023-03-26T20:13:48.228Z,15.19
2023-03-26T20:18:50.923Z,15.10
2023-03-26T20:23:56.129Z,15.00
2023-03-26T20:28:59.032Z,14.95
2023-03-26T20:34:01.200Z,14.87
2023-03-26T20:39:08.205Z,14.82
2023-03-26T20:44:18.603Z,14.75
2023-03-26T20:49:22.449Z,14.75
2023-03-26T20:54:26.145Z,14.66
2023-03-26T20:59:30.240Z,14.64
2023-03-26T21:04:32.445Z,14.64
2023-03-26T21:09:34.836Z,14.41
2023-03-26T21:14:44.535Z,14.50
2023-03-26T21:19:54.016Z,14.48
2023-03-26T21:25:11.825Z,14.30
2023-03-26T21:30:14.909Z,14.25
2023-03-26T21:35:19.741Z,14.22
2023-03-26T21:40:22.142Z,14.15
2023-03-26T21:45:24.547Z,14.14
2023-03-26T21:50:26.861Z,14.10
2023-03-26T21:55:29.122Z,14.09
2023-03-26T22:00:43.428Z,14.07
2023-03-26T22:05:54.714Z,14.02
2023-03-26T22:10:57.363Z,13.94
2023-03-26T22:15:59.777Z,13.87
2023-03-26T22:21:01.887Z,13.75
2023-03-26T22:26:05.163Z,13.69
2023-03-26T22:31:09.094Z,13.66
2023-03-26T22:36:22.701Z,13.56
2023-03-26T22:41:26.290Z,13.51
2023-03-26T22:46:29.036Z,13.46
2023-03-26T22:51:31.176Z,13.40
2023-03-26T22:56:33.219Z,13.31
2023-03-26T23:01:36.597Z,13.29
2023-03-26T23:06:38.674Z,13.23
2023-03-26T23:11:40.642Z,13.13
2023-03-26T23:16:46.334Z,13.14
2023-03-26T23:21:53.281Z,13.02
2023-03-26T23:26:57.738Z,13.02
2023-03-26T23:32:02.427Z,12.94
2023-03-26T23:37:06.627Z,12.85
2023-03-26T23:42:28.494Z,12.77
2023-03-26T23:47:35.353Z,12.74
2023-03-26T23:52:39.974Z,12.71
2023-03-26T23:57:44.370Z,12.71
